Time;durP1;ratioP1;P1;durP2;ratioP2;P2;SDS_P1;SDS_P2;PMS_P1;PMS_P2;Temp;Humidity;BMP_temperature;BMP_pressure;BME280_temperature;BME280_humidity;BME280_pressure;Samples;Min_cycle;Max_cycle;Signal;HPM_P1;HPM_P2
2022/08/27 00:00:52;;;;;;;10.07;9.07;;;;;;;17.46;72.78;92516.22;5030249;28;20191;-71
2022/08/27 00:03:17;;;;;;;9.23;8.47;;;;;;;17.39;72.02;92515.91;5030522;28;20187;-70
2022/08/27 00:05:43;;;;;;;9.93;8.93;;;;;;;17.46;72.06;92529.41;5029752;28;20726;-71
2022/08/27 00:08:11;;;;;;;10.70;9.53;;;;;;;17.54;71.67;92525.94;5030263;28;20259;-71
2022/08/27 00:10:37;;;;;;;10.60;9.63;;;;;;;17.46;71.66;92509.06;5029420;28;20261;-70
2022/08/27 00:13:02;;;;;;;9.67;8.43;;;;;;;17.51;71.24;92506.22;5030853;28;20231;-70
2022/08/27 00:15:28;;;;;;;10.27;9.33;;;;;;;17.58;71.46;92522.34;5029942;28;20259;-71
2022/08/27 00:17:54;;;;;;;9.17;8.47;;;;;;;17.26;72.26;92483.41;5029942;28;20210;-70
2022/08/27 00:20:21;;;;;;;9.37;8.57;;;;;;;17.56;72.12;92516.59;5029705;28;20220;-70
2022/08/27 00:22:46;;;;;;;9.63;8.97;;;;;;;17.38;72.01;92482.72;5029661;28;20231;-70
2022/08/27 00:25:12;;;;;;;11.07;9.27;;;;;;;17.44;72.50;92507.84;5030022;28;20226;-70
2022/08/27 00:27:39;;;;;;;12.30;9.53;;;;;;;17.46;72.78;92503.78;5046338;28;20248;-71
2022/08/27 00:30:07;;;;;;;10.40;9.60;;;;;;;17.51;72.41;92505.44;5049484;28;20224;-70
2022/08/27 00:32:33;;;;;;;10.20;9.33;;;;;;;17.58;71.88;92498.56;5032899;28;20184;-71
2022/08/27 00:34:58;;;;;;;10.87;8.70;;;;;;;17.54;72.67;92502.19;5029613;28;20239;-70
2022/08/27 00:37:24;;;;;;;10.07;9.10;;;;;;;17.48;72.93;92496.31;5035346;28;20469;-70
2022/08/27 00:39:50;;;;;;;10.07;9.37;;;;;;;17.55;73.23;92501.88;5029629;28;20237;-70
2022/08/27 00:42:15;;;;;;;9.30;8.70;;;;;;;17.46;73.76;92498.50;5040115;28;20211;-70
2022/08/27 00:44:41;;;;;;;9.90;9.30;;;;;;;17.45;73.61;92506.75;5029541;28;20234;-70
2022/08/27 00:47:13;;;;;;;9.73;8.93;;;;;;;17.33;73.84;92502.16;5031772;28;20179;-70
2022/08/27 00:49:45;;;;;;;10.60;9.90;;;;;;;17.38;74.53;92501.97;5029171;28;20282;-70
2022/08/27 00:52:33;;;;;;;10.17;9.27;;;;;;;17.35;74.11;92499.19;5029870;28;20182;-70
2022/08/27 00:55:05;;;;;;;9.33;8.63;;;;;;;17.29;73.79;92485.41;5029462;28;20250;-71
2022/08/27 00:57:32;;;;;;;10.37;9.47;;;;;;;17.42;73.89;92507.34;5045386;28;20186;-70
2022/08/27 00:59:58;;;;;;;10.53;9.43;;;;;;;17.21;74.70;92477.56;5049276;28;20229;-70
2022/08/27 01:02:28;;;;;;;9.63;8.77;;;;;;;17.22;75.42;92493.06;5036332;28;20258;-70
2022/08/27 01:05:07;;;;;;;9.80;9.00;;;;;;;17.17;76.19;92503.81;5029267;28;20301;-71
2022/08/27 01:07:37;;;;;;;10.47;9.60;;;;;;;17.13;75.66;92502.91;5045380;28;20253;-70
2022/08/27 01:10:06;;;;;;;11.93;9.20;;;;;;;17.15;76.27;92495.44;5053264;28;20237;-71
2022/08/27 01:12:32;;;;;;;10.77;9.10;;;;;;;17.24;75.77;92498.81;5028222;28;20176;-70
2022/08/27 01:14:59;;;;;;;12.07;9.03;;;;;;;17.10;74.93;92482.47;5013591;28;20244;-70
2022/08/27 01:17:25;;;;;;;9.67;8.73;;;;;;;16.92;75.62;92483.66;5029334;28;20716;-70
2022/08/27 01:19:54;;;;;;;9.93;9.13;;;;;;;17.02;76.43;92500.97;5033183;28;20236;-70
2022/08/27 01:23:03;;;;;;;9.57;8.67;;;;;;;17.04;76.61;92491.63;5033483;28;20221;-70
2022/08/27 01:25:29;;;;;;;10.03;9.03;;;;;;;16.92;75.65;92467.81;5033264;28;20226;-70
2022/08/27 01:27:59;;;;;;;11.53;9.87;;;;;;;16.95;75.93;92490.16;5032879;28;20184;-70
2022/08/27 01:30:25;;;;;;;15.07;8.97;;;;;;;16.75;76.69;92475.84;5033282;28;20238;-71
2022/08/27 01:32:51;;;;;;;10.40;9.30;;;;;;;16.84;77.53;92492.38;5051503;28;20215;-70
2022/08/27 01:35:18;;;;;;;10.57;9.67;;;;;;;16.91;77.79;92497.16;5052873;28;20265;-70
2022/08/27 01:37:48;;;;;;;11.23;9.53;;;;;;;16.93;76.40;92490.47;5034694;28;20195;-70
2022/08/27 01:40:14;;;;;;;10.23;9.23;;;;;;;16.89;76.63;92489.56;5032876;28;20215;-70
2022/08/27 01:42:42;;;;;;;10.30;9.27;;;;;;;16.73;77.39;92485.16;5033105;28;20221;-70
2022/08/27 01:45:15;;;;;;;10.20;9.30;;;;;;;16.85;77.75;92504.50;5032796;28;20239;-70
2022/08/27 01:47:41;;;;;;;10.80;9.77;;;;;;;16.53;78.36;92478.75;5032870;28;20279;-70
2022/08/27 01:50:37;;;;;;;8.87;8.13;;;;;;;16.72;78.54;92508.13;5032762;28;20234;-71
2022/08/27 01:53:09;;;;;;;9.73;8.93;;;;;;;16.56;78.07;92485.25;5013927;28;20211;-70
2022/08/27 01:55:35;;;;;;;12.63;9.27;;;;;;;16.58;78.24;92488.31;5013136;28;20227;-69
2022/08/27 01:58:01;;;;;;;10.33;9.53;;;;;;;16.69;78.13;92495.56;5013541;28;20219;-70
2022/08/27 02:00:31;;;;;;;11.50;9.27;;;;;;;16.73;77.93;92499.09;5011928;28;20232;-70
2022/08/27 02:02:57;;;;;;;9.80;9.03;;;;;;;16.69;78.04;92485.03;5051840;28;20249;-70
2022/08/27 02:05:23;;;;;;;10.67;9.17;;;;;;;16.86;78.57;92498.13;5052272;28;20286;-71
2022/08/27 02:07:49;;;;;;;9.63;8.73;;;;;;;16.82;79.24;92504.34;5033566;28;20236;-70
2022/08/27 02:10:22;;;;;;;9.60;8.77;;;;;;;16.72;78.51;92500.19;5031441;28;20242;-70
2022/08/27 02:12:48;;;;;;;9.23;8.73;;;;;;;16.68;78.66;92503.78;5021824;28;20241;-70
2022/08/27 02:15:14;;;;;;;12.23;8.60;;;;;;;16.60;78.99;92504.59;5012734;28;20231;-70
2022/08/27 02:17:39;;;;;;;10.97;9.97;;;;;;;16.59;79.65;92495.91;5029708;28;20218;-71
2022/08/27 02:20:07;;;;;;;9.63;8.80;;;;;;;16.61;79.60;92508.78;5030953;28;20215;-70
2022/08/27 02:22:33;;;;;;;10.97;10.07;;;;;;;16.69;79.76;92510.59;5048103;28;20206;-71
2022/08/27 02:24:58;;;;;;;10.40;9.33;;;;;;;16.47;80.79;92513.50;5051754;28;20333;-70
2022/08/27 02:27:23;;;;;;;10.50;9.67;;;;;;;16.46;80.87;92501.41;5036697;28;20186;-71
2022/08/27 02:29:50;;;;;;;10.77;9.63;;;;;;;16.46;81.54;92502.19;5031739;28;20234;-70
2022/08/27 02:32:16;;;;;;;9.67;9.07;;;;;;;16.36;81.90;92502.50;5031853;28;20194;-70
2022/08/27 02:34:41;;;;;;;10.93;9.93;;;;;;;16.41;81.52;92512.09;5031582;28;20301;-70
2022/08/27 02:37:07;;;;;;;10.43;9.50;;;;;;;16.35;82.40;92508.88;5031963;28;20183;-70
2022/08/27 02:39:33;;;;;;;10.80;9.90;;;;;;;16.38;82.38;92516.13;5031502;28;20265;-70
2022/08/27 02:41:59;;;;;;;9.53;8.63;;;;;;;16.37;82.26;92521.72;5031943;28;20233;-70
2022/08/27 02:44:25;;;;;;;10.03;9.27;;;;;;;16.32;82.36;92506.88;5030693;28;20227;-71
2022/08/27 02:46:50;;;;;;;11.43;10.63;;;;;;;16.29;83.04;92506.72;5031406;28;20187;-70
2022/08/27 02:49:16;;;;;;;12.10;9.03;;;;;;;16.24;83.40;92514.78;5030736;28;20231;-70
2022/08/27 02:51:42;;;;;;;11.23;10.40;;;;;;;16.27;83.37;92529.97;5031631;28;20189;-71
2022/08/27 02:54:07;;;;;;;10.30;9.27;;;;;;;16.23;83.45;92519.31;5031489;28;20222;-71
2022/08/27 02:56:33;;;;;;;10.63;9.60;;;;;;;16.17;83.24;92510.03;5031224;28;20198;-70
2022/08/27 02:58:58;;;;;;;10.77;9.97;;;;;;;16.26;83.30;92518.66;5031038;28;20258;-71
2022/08/27 03:01:24;;;;;;;10.70;8.77;;;;;;;16.16;83.43;92518.22;5031202;28;20219;-70
2022/08/27 03:03:50;;;;;;;10.23;9.33;;;;;;;16.06;84.07;92517.47;5031202;28;20242;-70
2022/08/27 03:06:15;;;;;;;10.60;9.60;;;;;;;16.01;83.34;92511.59;5036986;28;21131;-70
2022/08/27 03:08:41;;;;;;;10.27;9.07;;;;;;;16.14;83.45;92525.66;5050666;28;20253;-71
2022/08/27 03:11:07;;;;;;;9.83;9.03;;;;;;;16.08;83.63;92517.16;5046510;28;20179;-70
2022/08/27 03:13:37;;;;;;;10.03;9.33;;;;;;;16.02;84.15;92521.81;5013971;28;20186;-71
2022/08/27 03:16:02;;;;;;;10.33;9.30;;;;;;;15.97;83.91;92508.03;5015647;28;20179;-71
2022/08/27 03:18:28;;;;;;;10.03;9.23;;;;;;;16.03;83.68;92522.59;5030774;28;20217;-71
2022/08/27 03:20:55;;;;;;;10.97;10.07;;;;;;;16.09;83.25;92530.00;5030762;28;20726;-71
2022/08/27 03:23:24;;;;;;;9.63;8.77;;;;;;;16.02;82.85;92534.22;5031323;28;20183;-71
2022/08/27 03:25:53;;;;;;;9.80;8.90;;;;;;;16.02;83.05;92527.09;5032160;28;20234;-71
2022/08/27 03:28:21;;;;;;;9.10;8.40;;;;;;;16.00;83.07;92531.88;5051103;28;20178;-71
2022/08/27 03:30:48;;;;;;;10.43;9.60;;;;;;;15.99;82.99;92530.34;5047669;28;20236;-71
2022/08/27 03:33:13;;;;;;;9.67;8.87;;;;;;;15.88;83.07;92509.91;5031186;28;20199;-71
2022/08/27 03:35:38;;;;;;;10.97;10.10;;;;;;;15.96;83.63;92524.94;5029953;28;20304;-71
2022/08/27 03:38:04;;;;;;;10.17;9.33;;;;;;;15.95;84.01;92518.88;5031256;28;20210;-71
2022/08/27 03:40:29;;;;;;;10.03;9.43;;;;;;;16.19;83.51;92549.22;5030659;28;20218;-71
2022/08/27 03:42:55;;;;;;;9.70;9.03;;;;;;;16.14;82.56;92541.47;5031129;28;20202;-70
2022/08/27 03:45:20;;;;;;;14.37;9.83;;;;;;;16.19;82.45;92544.69;5030694;28;20222;-71
2022/08/27 03:47:45;;;;;;;10.67;9.00;;;;;;;16.04;84.26;92526.78;5030805;28;20187;-70
2022/08/27 03:50:11;;;;;;;9.40;8.80;;;;;;;15.96;83.85;92520.44;5030361;28;20250;-71
2022/08/27 03:52:37;;;;;;;12.53;9.90;;;;;;;16.19;84.10;92552.59;5030374;28;20201;-71
2022/08/27 03:55:04;;;;;;;10.63;9.43;;;;;;;16.17;83.73;92543.47;5030460;28;20254;-70
2022/08/27 03:57:31;;;;;;;10.57;9.57;;;;;;;16.18;83.45;92547.66;5030448;28;20274;-70
2022/08/27 03:59:56;;;;;;;10.80;9.90;;;;;;;16.20;83.29;92546.28;5030187;28;20229;-71
2022/08/27 04:02:21;;;;;;;9.67;8.87;;;;;;;16.11;83.95;92550.75;5030501;28;20218;-70
2022/08/27 04:04:47;;;;;;;12.73;9.57;;;;;;;16.11;83.91;92545.50;5029971;28;20223;-70
2022/08/27 04:07:13;;;;;;;10.37;9.43;;;;;;;16.16;83.71;92544.56;5030176;28;20238;-70
2022/08/27 04:09:38;;;;;;;15.50;10.50;;;;;;;16.29;83.07;92552.28;5030118;28;20230;-71
2022/08/27 04:12:04;;;;;;;9.97;9.10;;;;;;;16.27;83.33;92556.31;5025567;28;20207;-70
2022/08/27 04:14:30;;;;;;;10.57;9.43;;;;;;;16.37;83.30;92561.25;5010321;28;20226;-70
2022/08/27 04:16:56;;;;;;;9.47;8.70;;;;;;;16.41;82.96;92551.63;5022107;28;20191;-70
2022/08/27 04:19:21;;;;;;;13.43;9.53;;;;;;;16.40;83.37;92560.63;5029978;28;20246;-70
2022/08/27 04:21:46;;;;;;;10.63;9.70;;;;;;;16.47;82.39;92556.44;5029693;28;20226;-71
2022/08/27 04:24:12;;;;;;;10.27;9.23;;;;;;;16.55;82.17;92568.81;5029939;28;20775;-71
2022/08/27 04:26:39;;;;;;;9.10;8.50;;;;;;;16.41;83.50;92535.81;5029724;28;20210;-71
2022/08/27 04:29:05;;;;;;;9.60;8.87;;;;;;;16.62;83.60;92561.22;5029613;28;20311;-70
2022/08/27 04:31:30;;;;;;;10.17;9.33;;;;;;;16.58;83.71;92549.72;5029549;28;20187;-70
2022/08/27 04:33:56;;;;;;;12.27;9.10;;;;;;;16.74;83.46;92571.84;5029549;28;20224;-70
2022/08/27 04:36:22;;;;;;;9.17;8.47;;;;;;;16.76;82.68;92548.56;5029686;28;20181;-70
2022/08/27 04:38:47;;;;;;;11.90;9.90;;;;;;;16.89;82.79;92547.56;5029374;28;20249;-71
2022/08/27 04:41:19;;;;;;;11.10;9.87;;;;;;;17.16;82.42;92570.09;5029712;28;20215;-70
2022/08/27 04:43:47;;;;;;;11.10;10.10;;;;;;;17.22;81.34;92564.31;5029040;28;20227;-72
2022/08/27 04:46:12;;;;;;;10.43;9.67;;;;;;;17.35;80.61;92568.56;5029904;28;20181;-70
2022/08/27 04:48:38;;;;;;;10.63;9.83;;;;;;;17.29;80.32;92540.06;5029057;28;20206;-70
2022/08/27 04:51:03;;;;;;;10.10;9.37;;;;;;;17.49;80.76;92558.56;5033604;28;20189;-70
2022/08/27 04:53:29;;;;;;;10.20;9.50;;;;;;;17.70;79.98;92571.03;5049271;28;20195;-70
2022/08/27 04:55:56;;;;;;;10.20;9.30;;;;;;;17.72;80.04;92564.31;5049075;28;20167;-70
2022/08/27 04:58:23;;;;;;;9.90;8.43;;;;;;;17.66;80.35;92551.63;5040027;28;20183;-71
2022/08/27 05:00:51;;;;;;;10.57;9.57;;;;;;;17.97;78.69;92576.53;5027672;28;21021;-71
2022/08/27 05:03:22;;;;;;;10.47;9.60;;;;;;;18.04;78.46;92576.03;5029103;28;20273;-71
2022/08/27 05:05:48;;;;;;;10.70;9.83;;;;;;;18.01;77.82;92552.88;5029127;28;20223;-71
2022/08/27 05:08:14;;;;;;;12.37;8.87;;;;;;;18.27;77.71;92579.84;5030016;28;20234;-70
2022/08/27 05:10:46;;;;;;;12.50;9.50;;;;;;;18.51;74.76;92590.50;5029026;28;20286;-70
2022/08/27 05:13:12;;;;;;;10.53;9.67;;;;;;;18.26;75.99;92565.84;5029473;28;20198;-70
2022/08/27 05:15:38;;;;;;;12.50;11.27;;;;;;;18.18;77.35;92547.44;5028655;28;20292;-71
2022/08/27 05:18:05;;;;;;;10.73;9.47;;;;;;;18.62;75.07;92589.75;5030272;28;20189;-70
2022/08/27 05:20:32;;;;;;;12.77;9.93;;;;;;;18.48;75.26;92564.72;5029652;28;20216;-71
2022/08/27 05:22:58;;;;;;;13.37;11.10;;;;;;;18.70;75.65;92591.56;5029382;28;20231;-70
2022/08/27 05:25:25;;;;;;;10.87;9.97;;;;;;;18.53;76.20;92599.66;5029384;28;20229;-70
2022/08/27 05:27:50;;;;;;;11.97;10.80;;;;;;;18.49;76.51;92572.31;5029090;28;20204;-69
2022/08/27 05:30:16;;;;;;;12.50;10.77;;;;;;;18.62;75.22;92579.19;5029475;28;20299;-71
2022/08/27 05:32:42;;;;;;;11.27;10.20;;;;;;;18.64;75.94;92584.16;5046747;28;20716;-71
2022/08/27 05:35:08;;;;;;;11.33;10.30;;;;;;;18.88;74.93;92592.88;5049101;28;20231;-72
2022/08/27 05:37:34;;;;;;;12.43;11.13;;;;;;;19.03;74.67;92602.06;5032481;28;20248;-70
2022/08/27 05:40:00;;;;;;;12.70;10.23;;;;;;;19.10;73.82;92594.34;5029362;28;20237;-71
2022/08/27 05:42:25;;;;;;;15.10;10.97;;;;;;;19.04;74.83;92604.38;5039352;28;20209;-70
2022/08/27 05:44:51;;;;;;;13.43;11.47;;;;;;;19.31;74.17;92597.69;5029213;28;20229;-70
2022/08/27 05:47:17;;;;;;;12.57;10.73;;;;;;;19.68;71.88;92609.78;5029318;28;20216;-71
2022/08/27 05:49:43;;;;;;;12.70;10.87;;;;;;;19.55;71.36;92571.16;5028947;28;20266;-70
2022/08/27 05:52:12;;;;;;;11.93;10.70;;;;;;;19.75;72.32;92601.28;5029190;28;20190;-71
2022/08/27 05:54:38;;;;;;;12.33;11.13;;;;;;;19.80;71.50;92609.75;5030463;28;20287;-71
2022/08/27 05:57:05;;;;;;;12.80;11.00;;;;;;;19.59;73.22;92603.84;5032489;28;20210;-70
2022/08/27 06:02:15;;;;;;;10.90;10.00;;;;;;;26.69;49.08;92617.63;5046390;28;20250;-71
2022/08/27 06:04:40;;;;;;;12.43;10.60;;;;;;;27.60;44.82;92621.63;5052123;28;20222;-71
2022/08/27 06:07:08;;;;;;;15.25;10.45;;;;;;;28.13;42.49;92619.72;5039571;28;20235;-71
2022/08/27 06:09:33;;;;;;;14.48;10.48;;;;;;;25.73;48.44;92603.31;5032306;28;20221;-70
2022/08/27 06:11:59;;;;;;;11.75;10.57;;;;;;;23.46;55.47;92621.59;5028234;28;20185;-70
2022/08/27 06:14:25;;;;;;;14.50;10.90;;;;;;;22.02;61.20;92626.84;5012579;28;20329;-70
2022/08/27 06:16:51;;;;;;;16.63;11.57;;;;;;;21.16;64.72;92621.78;5023299;28;20189;-72
2022/08/27 06:19:17;;;;;;;12.65;11.43;;;;;;;21.35;64.12;92624.53;5032048;28;20234;-72
2022/08/27 06:21:43;;;;;;;11.75;10.68;;;;;;;20.75;65.70;92620.34;5032202;28;20224;-71
2022/08/27 06:24:11;;;;;;;12.00;11.00;;;;;;;20.80;66.38;92624.66;5032058;28;20737;-71
2022/08/27 06:26:38;;;;;;;17.20;10.50;;;;;;;21.04;64.30;92630.63;5032130;28;20198;-72
2022/08/27 06:29:06;;;;;;;20.88;11.05;;;;;;;20.76;65.87;92623.78;5032283;28;20258;-71
2022/08/27 06:31:34;;;;;;;12.77;11.68;;;;;;;20.57;67.45;92622.56;5031967;28;20190;-70
2022/08/27 06:34:01;;;;;;;12.98;11.38;;;;;;;20.93;66.37;92623.47;5031984;28;20226;-71
2022/08/27 06:36:28;;;;;;;14.48;12.13;;;;;;;21.11;66.32;92624.69;5031748;28;20190;-70
2022/08/27 06:38:54;;;;;;;14.07;11.75;;;;;;;21.12;65.46;92628.91;5031765;28;20232;-71
2022/08/27 06:41:24;;;;;;;14.23;11.05;;;;;;;20.82;66.17;92633.03;5031928;28;20231;-70
2022/08/27 06:43:50;;;;;;;11.35;10.05;;;;;;;20.44;67.90;92629.03;5032068;28;20227;-71
2022/08/27 06:46:17;;;;;;;11.75;10.75;;;;;;;20.90;67.15;92629.47;5033828;28;20199;-71
2022/08/27 06:48:44;;;;;;;14.43;11.80;;;;;;;21.38;64.45;92629.16;5031446;28;20251;-70
2022/08/27 06:51:19;;;;;;;16.48;11.48;;;;;;;21.33;65.22;92632.84;5035443;28;20224;-71
2022/08/27 06:53:46;;;;;;;12.77;11.57;;;;;;;21.46;65.02;92622.91;5051211;28;20245;-71
2022/08/27 06:56:13;;;;;;;11.45;10.35;;;;;;;21.06;66.44;92603.75;5051236;28;20215;-71
2022/08/27 06:58:40;;;;;;;14.77;12.30;;;;;;;21.41;64.08;92613.31;5051174;28;20176;-73
2022/08/27 07:01:21;;;;;;;14.65;11.80;;;;;;;21.38;64.97;92631.81;5050940;28;20253;-70
2022/08/27 07:03:46;;;;;;;13.35;11.98;;;;;;;21.55;64.39;92634.91;5051161;28;20240;-71
2022/08/27 07:06:14;;;;;;;16.77;11.98;;;;;;;21.62;64.01;92624.41;5045214;28;20182;-71
2022/08/27 07:08:40;;;;;;;14.25;12.75;;;;;;;21.58;64.47;92633.44;5031068;28;20218;-71
2022/08/27 07:11:08;;;;;;;20.27;11.68;;;;;;;22.00;63.26;92631.75;5035363;28;20223;-70
2022/08/27 07:13:34;;;;;;;15.77;12.50;;;;;;;21.36;66.46;92631.38;5033540;28;20210;-71
2022/08/27 07:16:04;;;;;;;19.90;12.32;;;;;;;21.65;64.50;92622.97;5031126;28;20184;-71
2022/08/27 07:18:30;;;;;;;16.35;12.40;;;;;;;21.55;65.65;92631.47;5030904;28;20194;-71
2022/08/27 07:20:55;;;;;;;13.27;11.00;;;;;;;21.99;64.38;92630.22;5030225;28;20199;-71
2022/08/27 07:23:20;;;;;;;12.70;11.18;;;;;;;22.14;64.22;92626.72;5031305;28;20268;-70
2022/08/27 07:25:46;;;;;;;15.30;12.85;;;;;;;22.34;61.55;92628.28;5030502;28;20224;-70
2022/08/27 07:28:11;;;;;;;17.65;10.45;;;;;;;22.26;63.04;92637.22;5031319;28;20184;-71
2022/08/27 07:30:37;;;;;;;15.45;11.98;;;;;;;22.14;63.52;92640.81;5030331;28;20258;-70
2022/08/27 07:33:03;;;;;;;12.05;10.43;;;;;;;22.55;61.01;92644.69;5031133;28;20203;-71
2022/08/27 07:35:30;;;;;;;17.80;10.25;;;;;;;22.35;62.16;92640.44;5030643;28;20235;-70
2022/08/27 07:37:56;;;;;;;10.70;9.68;;;;;;;22.64;61.82;92631.94;5031280;28;20190;-71
2022/08/27 07:40:22;;;;;;;11.45;10.27;;;;;;;22.89;61.01;92638.50;5030824;28;20260;-71
2022/08/27 07:45:31;;;;;;;12.63;10.40;;;;;;;22.96;62.31;92635.94;5030596;28;20275;-71
2022/08/27 07:47:57;;;;;;;13.43;9.80;;;;;;;23.09;59.47;92642.66;5032384;28;20255;-71
2022/08/27 07:50:22;;;;;;;10.40;9.40;;;;;;;22.89;61.21;92651.81;5029581;28;20233;-71
2022/08/27 07:52:49;;;;;;;12.82;9.07;;;;;;;23.14;60.57;92650.38;5048546;28;21064;-69
2022/08/27 07:55:14;;;;;;;9.68;8.88;;;;;;;23.06;62.10;92640.72;5050287;28;20266;-71
2022/08/27 07:57:40;;;;;;;9.90;9.02;;;;;;;23.05;61.41;92657.03;5032875;28;20181;-71
2022/08/27 08:00:11;;;;;;;15.30;9.55;;;;;;;23.42;59.02;92650.88;5031170;28;20761;-70
2022/08/27 08:02:38;;;;;;;18.70;9.68;;;;;;;23.38;60.34;92655.34;5046913;28;20639;-71
2022/08/27 08:05:05;;;;;;;12.10;10.18;;;;;;;23.55;58.36;92648.75;5050015;28;20914;-71
2022/08/27 08:07:31;;;;;;;16.45;10.27;;;;;;;23.72;57.95;92640.28;5033734;28;20226;-71
2022/08/27 08:09:58;;;;;;;12.50;9.18;;;;;;;23.89;56.62;92655.00;5030520;28;20218;-71
2022/08/27 08:12:23;;;;;;;13.10;9.30;;;;;;;23.88;57.47;92656.16;5030560;28;20185;-72
2022/08/27 08:14:49;;;;;;;10.00;8.93;;;;;;;24.06;55.45;92657.97;5030099;28;20256;-72
2022/08/27 08:17:14;;;;;;;10.32;8.98;;;;;;;23.92;56.95;92656.94;5029582;28;20197;-71
2022/08/27 08:19:40;;;;;;;9.90;9.07;;;;;;;23.85;55.92;92619.50;5029441;28;20231;-71
2022/08/27 08:22:06;;;;;;;10.68;8.88;;;;;;;23.92;56.66;92628.41;5029372;28;20229;-71
2022/08/27 08:24:33;;;;;;;11.18;9.45;;;;;;;23.77;57.31;92647.97;5029894;28;20281;-71
2022/08/27 08:26:58;;;;;;;10.13;9.40;;;;;;;24.00;54.29;92645.28;5030307;28;20196;-71
2022/08/27 08:29:24;;;;;;;10.48;9.40;;;;;;;24.43;53.97;92644.72;5029855;28;20255;-71
2022/08/27 08:31:49;;;;;;;10.40;9.38;;;;;;;24.47;53.62;92640.97;5030137;28;20248;-70
2022/08/27 08:34:14;;;;;;;13.98;8.50;;;;;;;24.65;52.67;92649.19;5029857;28;20237;-71
2022/08/27 08:36:40;;;;;;;10.13;9.32;;;;;;;24.40;53.33;92629.44;5035241;28;20249;-70
2022/08/27 08:39:05;;;;;;;10.10;9.30;;;;;;;24.51;52.17;92639.13;5029764;28;20225;-71
2022/08/27 08:41:41;;;;;;;10.30;9.32;;;;;;;24.62;49.80;92642.66;5029973;28;20237;-71
2022/08/27 08:44:15;;;;;;;8.65;7.75;;;;;;;24.89;48.41;92659.41;5029912;28;20229;-71
2022/08/27 08:46:48;;;;;;;10.10;9.10;;;;;;;24.51;50.50;92660.47;5038835;28;20254;-71
2022/08/27 08:49:34;;;;;;;9.50;8.63;;;;;;;24.54;51.22;92656.28;5049692;28;20235;-70
2022/08/27 08:52:38;;;;;;;12.00;9.10;;;;;;;24.44;50.86;92654.25;5037676;28;20190;-71
2022/08/27 08:55:31;;;;;;;10.15;8.77;;;;;;;24.33;46.87;92648.78;5017158;28;20239;-71
2022/08/27 08:58:19;;;;;;;11.93;9.23;;;;;;;24.57;49.06;92656.34;5029743;28;20176;-71
2022/08/27 09:00:52;;;;;;;12.57;9.05;;;;;;;25.18;46.69;92642.53;5029264;28;20316;-72
2022/08/27 09:03:18;;;;;;;10.30;8.00;;;;;;;25.10;43.70;92635.59;5030092;28;20253;-71
2022/08/27 09:05:50;;;;;;;9.55;8.65;;;;;;;25.23;43.73;92656.31;5029206;28;20336;-71
2022/08/27 09:08:30;;;;;;;13.50;8.25;;;;;;;25.33;45.45;92657.59;5029968;28;20240;-71
2022/08/27 09:11:14;;;;;;;11.38;8.02;;;;;;;25.18;45.17;92658.56;5028943;28;20202;-72
2022/08/27 09:13:46;;;;;;;8.80;8.20;;;;;;;24.80;42.28;92645.56;5029489;28;20186;-71
2022/08/27 09:16:12;;;;;;;9.43;7.13;;;;;;;25.25;42.60;92658.63;5029545;28;20197;-72
2022/08/27 09:18:40;;;;;;;12.63;8.82;;;;;;;25.37;42.49;92645.00;5029339;28;20191;-71
2022/08/27 09:21:15;;;;;;;13.50;7.82;;;;;;;25.13;44.32;92637.53;5029845;28;20198;-71
2022/08/27 09:23:52;;;;;;;9.95;9.07;;;;;;;25.38;46.30;92649.25;5029221;28;20195;-71
2022/08/27 09:26:22;;;;;;;10.15;9.25;;;;;;;25.72;43.24;92647.22;5029568;28;20214;-71
2022/08/27 09:31:35;;;;;;;12.25;7.93;;;;;;;25.80;40.67;92632.75;5033262;28;20224;-71
2022/08/27 09:34:04;;;;;;;13.43;8.27;;;;;;;25.92;40.69;92643.94;5033232;28;20611;-71
2022/08/27 09:36:29;;;;;;;9.82;8.23;;;;;;;25.67;42.59;92636.84;5033192;28;20201;-71
2022/08/27 09:39:01;;;;;;;8.45;7.88;;;;;;;25.87;43.75;92651.56;5032635;28;20262;-71
2022/08/27 09:41:31;;;;;;;12.88;7.85;;;;;;;25.88;42.76;92653.88;5033033;28;20230;-71
2022/08/27 09:44:11;;;;;;;10.32;7.57;;;;;;;26.14;41.70;92655.56;5033277;28;20278;-71
2022/08/27 09:46:37;;;;;;;10.65;8.65;;;;;;;26.23;39.85;92646.06;5034695;28;20187;-71
2022/08/27 09:49:16;;;;;;;9.18;7.95;;;;;;;26.15;41.08;92655.19;5032916;28;20231;-70
2022/08/27 09:51:44;;;;;;;9.98;7.80;;;;;;;26.62;40.45;92654.28;5041919;28;20197;-71
2022/08/27 09:54:10;;;;;;;9.75;7.55;;;;;;;26.56;38.88;92655.81;5052842;28;20310;-71
2022/08/27 09:56:38;;;;;;;9.52;8.50;;;;;;;26.21;40.37;92656.38;5043900;28;20187;-71
2022/08/27 09:59:05;;;;;;;16.75;8.32;;;;;;;26.09;39.50;92654.03;5032815;28;20226;-71
2022/08/27 10:01:33;;;;;;;8.77;8.05;;;;;;;26.04;41.76;92638.31;5031478;28;20226;-71
2022/08/27 10:04:11;;;;;;;9.25;7.45;;;;;;;26.42;37.70;92648.47;5032216;28;20238;-71
2022/08/27 10:06:45;;;;;;;11.10;7.90;;;;;;;26.41;38.36;92654.97;5031703;28;20175;-71
2022/08/27 10:09:21;;;;;;;9.23;7.97;;;;;;;26.12;38.39;92642.56;5031539;28;20234;-71
2022/08/27 10:12:17;;;;;;;10.35;7.53;;;;;;;26.32;40.21;92646.50;5032585;28;20202;-72
2022/08/27 10:14:57;;;;;;;8.50;7.80;;;;;;;26.47;36.20;92642.78;5032188;28;20219;-71
2022/08/27 10:17:25;;;;;;;10.63;8.18;;;;;;;26.38;39.29;92650.34;5032736;28;20187;-70
2022/08/27 10:20:12;;;;;;;10.82;8.05;;;;;;;26.60;37.03;92652.00;5031636;28;20294;-70
2022/08/27 10:22:50;;;;;;;8.32;7.63;;;;;;;26.83;37.78;92643.72;5032032;28;20211;-71
2022/08/27 10:25:16;;;;;;;13.02;8.80;;;;;;;27.03;35.69;92646.81;5031948;28;20233;-71
2022/08/27 10:28:00;;;;;;;9.27;7.93;;;;;;;27.04;34.77;92645.66;5031906;28;20191;-71
2022/08/27 10:30:41;;;;;;;8.57;7.88;;;;;;;27.32;36.40;92649.22;5031890;28;20261;-71
2022/08/27 10:33:13;;;;;;;11.35;8.20;;;;;;;27.31;34.59;92645.00;5032513;28;20183;-71
2022/08/27 10:36:01;;;;;;;9.50;8.60;;;;;;;27.05;35.88;92650.66;5030980;28;20222;-72
2022/08/27 10:38:38;;;;;;;15.65;7.28;;;;;;;27.01;36.44;92649.09;5031693;28;20183;-71
2022/08/27 10:41:26;;;;;;;9.55;8.00;;;;;;;26.62;34.96;92648.94;5030212;28;20546;-71
2022/08/27 10:44:22;;;;;;;8.68;7.50;;;;;;;26.82;35.26;92641.41;5031773;28;20218;-71
2022/08/27 10:47:18;;;;;;;10.88;7.90;;;;;;;26.86;34.16;92647.53;5041420;28;20186;-71
2022/08/27 10:50:02;;;;;;;11.50;8.13;;;;;;;27.01;35.12;92606.22;5051217;28;21135;-71
2022/08/27 10:52:46;;;;;;;8.27;7.43;;;;;;;27.37;35.85;92640.00;5051054;28;20227;-71
2022/08/27 10:55:25;;;;;;;8.27;7.35;;;;;;;27.43;33.55;92643.84;5051174;28;20252;-71
2022/08/27 10:57:51;;;;;;;9.98;8.10;;;;;;;27.37;34.35;92648.06;5050997;28;20190;-71
2022/08/27 11:00:19;;;;;;;8.63;7.78;;;;;;;27.40;33.36;92644.63;5051276;28;20237;-71
2022/08/27 11:02:50;;;;;;;10.68;8.73;;;;;;;27.37;33.99;92645.38;5040636;28;20211;-72
2022/08/27 11:05:25;;;;;;;9.20;7.60;;;;;;;27.34;32.60;92646.91;5031136;28;20349;-71
2022/08/27 11:08:38;;;;;;;13.23;8.23;;;;;;;27.20;32.85;92635.38;5030650;28;20222;-73
2022/08/27 11:11:30;;;;;;;8.45;7.65;;;;;;;27.01;34.32;92638.38;4985755;28;20241;-72
2022/08/27 11:13:58;;;;;;;11.32;8.50;;;;;;;27.11;33.32;92584.81;5011861;28;20230;-71
2022/08/27 11:16:23;;;;;;;9.35;8.15;;;;;;;27.25;34.69;92625.06;5018566;28;20296;-72
2022/08/27 11:19:22;;;;;;;9.20;8.27;;;;;;;27.52;32.18;92630.84;5030958;28;20310;-71
2022/08/27 11:22:28;;;;;;;8.38;7.70;;;;;;;27.17;33.90;92625.41;5030652;28;20242;-71
2022/08/27 11:25:21;;;;;;;9.07;8.18;;;;;;;27.28;32.92;92627.00;5030503;28;20247;-71
2022/08/27 11:27:50;;;;;;;11.80;8.25;;;;;;;26.97;34.07;92598.19;5031006;28;20187;-71
2022/08/27 11:30:21;;;;;;;9.05;8.13;;;;;;;27.37;34.74;92618.56;5030834;28;20226;-71
2022/08/27 11:33:28;;;;;;;8.85;8.15;;;;;;;27.35;31.88;92610.16;5031183;28;20187;-71
2022/08/27 11:36:17;;;;;;;9.25;8.38;;;;;;;27.73;31.57;92617.44;5030853;28;20234;-71
2022/08/27 11:39:14;;;;;;;9.88;8.50;;;;;;;27.79;32.33;92619.34;5011137;28;20197;-71
2022/08/27 11:42:10;;;;;;;9.70;8.75;;;;;;;27.84;31.57;92620.88;5020161;28;20237;-71
2022/08/27 11:44:45;;;;;;;10.02;8.98;;;;;;;27.73;29.61;92610.16;5026314;28;20237;-71
2022/08/27 11:47:13;;;;;;;10.75;8.57;;;;;;;27.62;30.33;92611.28;5024320;28;20194;-71